createdAt,value
2022-09-02T00:05:02.848Z,100497
2022-09-02T00:10:53.711Z,100489
2022-09-02T00:16:44.610Z,100485
2022-09-02T00:22:35.615Z,100470
2022-09-02T00:28:27.781Z,100473
2022-09-02T00:34:20.269Z,100469
2022-09-02T00:40:12.765Z,100468
2022-09-02T00:46:04.408Z,100465
2022-09-02T00:51:55.761Z,100467
2022-09-02T00:58:55.745Z,100462
2022-09-02T01:04:46.429Z,100456
2022-09-02T01:10:38.555Z,100458
2022-09-02T01:16:31.129Z,100455
2022-09-02T01:22:23.225Z,100461
2022-09-02T01:28:13.953Z,100454
2022-09-02T01:34:06.350Z,100448
2022-09-02T01:39:59.668Z,100440
2022-09-02T01:45:49.706Z,100451
2022-09-02T01:51:40.802Z,100441
2022-09-02T01:58:41.419Z,100445
2022-09-02T02:04:33.615Z,100442
2022-09-02T02:10:25.122Z,100444
2022-09-02T02:16:18.305Z,100449
2022-09-02T02:22:09.583Z,100451
2022-09-02T02:28:04.788Z,100453
2022-09-02T02:33:58.683Z,100452
2022-09-02T02:39:51.357Z,100442
2022-09-02T02:45:44.396Z,100447
2022-09-02T02:51:35.316Z,100450
2022-09-02T02:57:28.291Z,100446
2022-09-02T03:03:22.037Z,100450
2022-09-02T03:09:14.608Z,100446
2022-09-02T03:15:07.275Z,100444
2022-09-02T03:20:59.946Z,100440
2022-09-02T03:26:52.120Z,100442
2022-09-02T03:32:42.749Z,100438
2022-09-02T03:38:33.621Z,100436
2022-09-02T03:44:27.469Z,100437
2022-09-02T03:50:16.495Z,100433
2022-09-02T03:56:06.590Z,100429
2022-09-02T04:01:58.271Z,100416
2022-09-02T04:07:50.065Z,100422
2022-09-02T04:13:38.996Z,100412
2022-09-02T04:19:30.202Z,100413
2022-09-02T04:25:29.297Z,100418
2022-09-02T04:31:19.740Z,100414
2022-09-02T04:37:10.667Z,100423
2022-09-02T04:43:03.129Z,100419
2022-09-02T04:48:55.395Z,100425
2022-09-02T04:54:46.453Z,100421
2022-09-02T05:00:36.329Z,100425
2022-09-02T05:06:27.454Z,100421
2022-09-02T05:12:18.489Z,100421
2022-09-02T05:18:08.929Z,100421
2022-09-02T05:24:00.574Z,100416
2022-09-02T05:29:51.740Z,100430
2022-09-02T05:36:50.631Z,100421
2022-09-02T05:42:39.945Z,100428
2022-09-02T05:48:31.017Z,100422
2022-09-02T05:54:22.552Z,100426
2022-09-02T06:00:21.155Z,100426
2022-09-02T06:06:13.829Z,100430
2022-09-02T06:12:06.001Z,100432
2022-09-02T06:17:59.213Z,100426
2022-09-02T06:23:53.028Z,100431
2022-09-02T06:29:44.913Z,100423
2022-09-02T06:35:36.504Z,100427
2022-09-02T06:41:27.829Z,100420
2022-09-02T06:47:18.499Z,100424
2022-09-02T06:53:09.802Z,100424
2022-09-02T06:59:02.026Z,100426
2022-09-02T07:04:59.274Z,100421
2022-09-02T07:10:51.799Z,100410
2022-09-02T07:16:44.773Z,100400
2022-09-02T07:22:35.991Z,100405
2022-09-02T07:28:29.558Z,100397
2022-09-02T07:34:20.259Z,100406
2022-09-02T07:40:11.539Z,100395
2022-09-02T07:46:03.200Z,100400
2022-09-02T07:51:54.711Z,100404
2022-09-02T07:57:48.945Z,100388
2022-09-02T08:03:43.429Z,100397
2022-09-02T08:09:32.732Z,100392
2022-09-02T08:15:23.186Z,100391
2022-09-02T08:21:16.332Z,100387
2022-09-02T08:27:07.453Z,100390
2022-09-02T08:33:00.108Z,100381
2022-09-02T08:38:52.026Z,100382
2022-09-02T08:44:43.550Z,100379
2022-09-02T08:50:36.993Z,100380
2022-09-02T08:56:30.848Z,100366
2022-09-02T09:02:25.020Z,100372
2022-09-02T09:08:23.574Z,100376
2022-09-02T09:14:14.134Z,100363
2022-09-02T09:20:04.639Z,100363
2022-09-02T09:25:56.382Z,100356
2022-09-02T09:31:48.050Z,100349
2022-09-02T09:37:40.606Z,100348
2022-09-02T09:43:31.612Z,100344
2022-09-02T09:49:24.223Z,100345
2022-09-02T09:55:25.015Z,100332
2022-09-02T10:01:14.803Z,100331
2022-09-02T10:07:05.154Z,100332
2022-09-02T10:12:55.911Z,100326
2022-09-02T10:18:52.314Z,100325
2022-09-02T10:24:42.936Z,100312
2022-09-02T10:30:34.370Z,100301
2022-09-02T10:36:28.623Z,100301
2022-09-02T10:42:19.827Z,100290
2022-09-02T10:48:12.114Z,100288
2022-09-02T10:54:02.923Z,100283
2022-09-02T10:59:54.638Z,100284
2022-09-02T11:05:47.301Z,100266
2022-09-02T11:11:38.862Z,100275
2022-09-02T11:17:30.630Z,100262
2022-09-02T11:23:21.804Z,100258
2022-09-02T11:29:13.859Z,100253
2022-09-02T11:35:07.109Z,100241
2022-09-02T11:41:40.613Z,100235
2022-09-02T11:47:29.046Z,100233
2022-09-02T11:53:29.938Z,100229
2022-09-02T11:59:19.411Z,100212
2022-09-02T12:05:13.677Z,100207
2022-09-02T12:11:06.110Z,100217
2022-09-02T12:16:57.770Z,100215
2022-09-02T12:22:50.252Z,100207
2022-09-02T12:28:41.549Z,100193
2022-09-02T12:34:35.414Z,100195
2022-09-02T12:40:33.777Z,100189
2022-09-02T12:46:26.465Z,100185
2022-09-02T12:52:19.324Z,100176
2022-09-02T12:58:11.921Z,100172
2022-09-02T13:04:03.776Z,100160
2022-09-02T13:09:55.029Z,100156
2022-09-02T13:15:47.516Z,100155
2022-09-02T13:21:40.798Z,100159
2022-09-02T13:27:31.367Z,100146
2022-09-02T13:33:21.038Z,100136
2022-09-02T13:39:11.011Z,100123
2022-09-02T13:45:01.934Z,100117
2022-09-02T13:50:54.429Z,100110
2022-09-02T13:56:45.806Z,100104
2022-09-02T14:02:39.244Z,100099
2022-09-02T14:08:30.350Z,100100
2022-09-02T14:14:21.063Z,100089
2022-09-02T14:20:12.776Z,100081
2022-09-02T14:26:05.895Z,100065
2022-09-02T14:31:58.654Z,100063
2022-09-02T14:37:51.380Z,100058
2022-09-02T14:43:43.105Z,100044
2022-09-02T14:49:40.045Z,100050
2022-09-02T14:55:43.865Z,100061
2022-09-02T15:01:34.913Z,100049
2022-09-02T15:07:26.491Z,100035
2022-09-02T15:13:17.519Z,100037
2022-09-02T15:19:06.766Z,100034
2022-09-02T15:24:59.271Z,100026
2022-09-02T15:30:51.142Z,100027
2022-09-02T15:36:44.209Z,100025
2022-09-02T15:42:37.578Z,100031
2022-09-02T15:48:28.752Z,100034
2022-09-02T15:54:21.243Z,100022
2022-09-02T16:00:14.044Z,100020
2022-09-02T16:06:05.593Z,100019
2022-09-02T16:11:57.699Z,100008
2022-09-02T16:17:48.901Z,100001
2022-09-02T16:23:41.141Z,100007
2022-09-02T16:29:32.371Z,99999
2022-09-02T16:35:22.998Z,99994
2022-09-02T16:41:14.115Z,99999
2022-09-02T16:47:05.198Z,99996
2022-09-02T16:53:00.117Z,99997
2022-09-02T16:58:51.188Z,100001
2022-09-02T17:04:42.507Z,99995
2022-09-02T17:10:34.628Z,99977
2022-09-02T17:16:26.147Z,100001
2022-09-02T17:22:17.193Z,99992
2022-09-02T17:28:08.971Z,99999
2022-09-02T17:34:00.408Z,100001
2022-09-02T17:39:52.216Z,100002
2022-09-02T17:45:44.368Z,99999
2022-09-02T17:51:35.207Z,99998
2022-09-02T17:57:26.969Z,100004
2022-09-02T18:03:23.958Z,99998
2022-09-02T18:09:31.369Z,99996
2022-09-02T18:15:30.841Z,100001
2022-09-02T18:21:20.589Z,100003
2022-09-02T18:27:11.374Z,100009
2022-09-02T18:34:07.188Z,100008
2022-09-02T18:40:03.043Z,100018
2022-09-02T18:45:55.011Z,100019
2022-09-02T18:51:45.529Z,100014
2022-09-02T18:57:37.029Z,100019
2022-09-02T19:03:25.478Z,100025
2022-09-02T19:09:15.337Z,100023
2022-09-02T19:15:04.919Z,100028
2022-09-02T19:20:55.351Z,100026
2022-09-02T19:26:45.327Z,100027
2022-09-02T19:32:34.888Z,100033
2022-09-02T19:38:25.688Z,100029
2022-09-02T19:44:15.425Z,100026
2022-09-02T19:50:05.047Z,100031
2022-09-02T19:55:55.090Z,100025
2022-09-02T20:01:45.100Z,100029
2022-09-02T20:07:34.881Z,100029
2022-09-02T20:13:24.965Z,100032
2022-09-02T20:19:16.541Z,100032
2022-09-02T20:25:07.098Z,100032
2022-09-02T20:30:57.874Z,100033
2022-09-02T20:36:48.001Z,100030
2022-09-02T20:42:37.522Z,100026
2022-09-02T20:48:27.848Z,100021
2022-09-02T20:54:18.782Z,100021
2022-09-02T21:00:09.144Z,100030
2022-09-02T21:05:58.480Z,100022
2022-09-02T21:11:48.976Z,100021
2022-09-02T21:17:38.811Z,100019
2022-09-02T21:23:35.535Z,100019
2022-09-02T21:29:25.540Z,100014
2022-09-02T21:35:17.710Z,100010
2022-09-02T21:41:07.775Z,100000
2022-09-02T21:46:58.431Z,100009
2022-09-02T21:52:49.519Z,99999
2022-09-02T21:58:38.929Z,100000
2022-09-02T22:04:28.936Z,99996
2022-09-02T22:10:18.344Z,99990
2022-09-02T22:16:10.023Z,99990
2022-09-02T22:22:00.790Z,99980
2022-09-02T22:27:57.426Z,99979
2022-09-02T22:33:49.268Z,99979
2022-09-02T22:39:41.159Z,99981
2022-09-02T22:45:32.606Z,99978
2022-09-02T22:51:23.224Z,99988
2022-09-02T22:57:15.255Z,99991
2022-09-02T23:03:06.517Z,99989
2022-09-02T23:08:57.568Z,99989
2022-09-02T23:14:48.508Z,99979
2022-09-02T23:20:39.438Z,99977
2022-09-02T23:26:30.620Z,99975
2022-09-02T23:32:21.986Z,99974
2022-09-02T23:38:12.794Z,99972
2022-09-02T23:44:04.991Z,99975
2022-09-02T23:49:59.308Z,99968
2022-09-02T23:55:49.623Z,99971
